Latest Weather Observations for Redland (Alexandra Hills)

IDQ60801

Issued at 11:32 pm EST Friday 15 November 2019 (issued every 10 minutes, with the page automatically refreshed every 10 minutes)

About weather observations | Map of weather stations | Latest weather observations for QLD | Other Formats
Station Details ID: 140007 Name: REDLAND (ALEXANDRA HILLS) Lat: -27.54 Lon: 153.24 Height: 50.53 m
Data from the previous 72 hours. | See also: Recent months at Redland (Alexandra Hills)
Date/Time
EST
Temp
°C
App
Temp
°C
Dew
Point
°C
Rel
Hum
%
Delta-T
°C
Wind Press
QNH
hPa
Press
MSL
hPa
Rain since
9am
mm
Dir  Spd
km/h
Gust
km/h
Spd
kts
Gust
kts
15/11:30pm 23.6 24.9 20.1 81 2.3 N 13 24 7 13 - - 0.0
15/11:00pm 23.5 24.8 20.2 82 2.1 N 13 20 7 11 - - 0.0
15/10:30pm 23.7 25.1 20.4 82 2.1 N 13 24 7 13 - - 0.0
15/10:00pm 23.9 24.9 20.2 80 2.4 N 15 24 8 13 - - 0.0
15/09:30pm 23.9 25.1 20.6 82 2.2 N 15 26 8 14 - - 0.0
15/09:00pm 24.0 25.2 20.7 82 2.2 N 15 22 8 12 - - 0.0
15/08:30pm 24.1 25.0 20.8 82 2.2 N 17 35 9 19 - - 0.0
15/08:00pm 24.0 24.9 20.9 83 2.0 N 17 30 9 16 - - 0.0
15/07:30pm 24.0 24.5 20.9 83 2.0 N 19 32 10 17 - - 0.0
15/07:00pm 24.0 24.7 20.5 81 2.3 N 17 32 9 17 - - 0.0
15/06:30pm 24.1 24.2 20.4 80 2.4 N 20 33 11 18 - - 0.0
15/06:00pm 24.3 24.5 20.6 80 2.4 N 20 33 11 18 - - 0.0
15/05:30pm 24.7 24.9 20.6 78 2.7 N 20 35 11 19 - - 0.0
15/05:00pm 25.4 25.1 20.4 74 3.3 N 22 39 12 21 - - 0.0
15/04:30pm 26.1 26.1 20.2 70 3.9 N 20 35 11 19 - - 0.0
15/04:00pm 26.1 25.8 20.4 71 3.7 N 22 39 12 21 - - 0.0
15/03:30pm 27.1 28.4 21.6 72 3.7 N 17 26 9 14 - - 0.0
15/03:00pm 26.7 27.3 21.0 71 3.8 N 19 33 10 18 - - 0.0
15/02:30pm 26.8 27.0 21.3 72 3.7 NNE 22 33 12 18 - - 0.0
15/02:00pm 27.8 28.5 20.4 64 4.9 NNE 17 28 9 15 - - 0.0
15/01:30pm 27.5 27.8 20.3 65 4.7 NNE 19 28 10 15 - - 0.0
15/01:00pm 27.3 26.6 19.4 62 5.1 NE 22 28 12 15 - - 0.0
15/12:30pm 28.0 28.1 20.0 61 5.2 NNE 19 28 10 15 - - 0.0
15/12:00pm 27.7 28.2 20.0 63 5.0 NE 17 26 9 14 - - 0.0
15/11:30am 26.9 26.8 19.5 64 4.8 NE 19 26 10 14 - - 0.0
15/11:00am 26.9 27.7 19.8 65 4.6 NNE 15 26 8 14 - - 0.0
15/10:30am 25.9 26.2 19.5 68 4.1 NNE 17 26 9 14 - - 0.0
15/10:00am 27.0 27.6 18.6 60 5.4 N 13 26 7 14 - - 0.0
15/09:30am 26.4 27.5 18.8 63 4.9 N 11 19 6 10 - - 0.0
15/09:00am 25.5 27.1 18.2 64 4.6 WNW 7 13 4 7 - - 0.0
15/08:30am 25.2 27.0 18.4 66 4.3 N 6 9 3 5 - - 0.0
15/08:00am 24.5 26.3 18.7 70 3.7 NW 7 11 4 6 - - 0.0
15/07:30am 23.5 26.4 19.0 76 2.9 W 2 6 1 3 - - 0.0
15/07:00am 22.6 25.5 19.0 80 2.3 WSW 2 7 1 4 - - 0.0
15/06:30am 22.1 24.3 19.3 84 1.8 SW 6 9 3 5 - - 0.0
15/06:00am 20.6 23.4 18.9 90 1.1 W 2 4 1 2 - - 0.0
15/05:30am 20.3 23.2 19.0 92 0.8 W 2 4 1 2 - - 0.0
15/05:00am 20.5 23.6 18.6 89 1.2 CALM 0 0 0 0 - - 0.0
15/04:30am 21.6 25.3 19.9 90 1.1 CALM 0 0 0 0 - - 0.0
15/04:00am 21.3 24.8 19.6 90 1.1 CALM 0 0 0 0 - - 0.0
15/03:30am 21.7 24.8 19.6 88 1.3 NNE 2 4 1 2 - - 0.0
15/03:00am 21.8 25.3 19.5 87 1.5 CALM 0 0 0 0 - - 0.0
15/02:30am 21.9 25.0 19.5 86 1.5 N 2 6 1 3 - - 0.0
15/02:00am 22.0 24.3 19.4 85 1.7 NNE 6 9 3 5 - - 0.0
15/01:30am 22.0 24.2 19.2 84 1.8 NNE 6 9 3 5 - - 0.0
15/01:00am 22.3 24.5 19.5 84 1.8 NE 7 11 4 6 - - 0.0
15/12:30am 22.2 24.4 19.2 83 1.9 NE 6 11 3 6 - - 0.0
15/12:00am 22.2 24.4 19.2 83 1.9 ENE 6 9 3 5 - - 0.0
 
Date/Time
EST
Temp
°C
App
Temp
°C
Dew
Point
°C
Rel
Hum
%
Delta-T
°C
Wind Press
QNH
hPa
Press
MSL
hPa
Rain since
9am
mm
Dir  Spd
km/h
Gust
km/h
Spd
kts
Gust
kts
14/11:30pm 22.1 24.1 19.1 83 1.9 NE 7 11 4 6 - - 0.0
14/11:00pm 22.1 24.6 19.1 83 1.9 ENE 4 6 2 3 - - 0.0
14/10:30pm 22.1 24.1 19.1 83 1.9 ENE 7 11 4 6 - - 0.0
14/10:00pm 22.1 24.2 18.9 82 2.0 ENE 6 9 3 5 - - 0.0
14/09:30pm 21.9 24.3 18.7 82 2.0 ENE 4 7 2 4 - - 0.0
14/09:00pm 21.6 24.3 18.6 83 1.9 ENE 2 7 1 4 - - 0.0
14/08:30pm 21.6 23.2 18.2 81 2.1 ENE 7 11 4 6 - - 0.0
14/08:00pm 21.4 23.5 18.0 81 2.1 E 4 9 2 5 - - 0.0
14/07:30pm 21.6 23.2 17.8 79 2.4 ENE 6 9 3 5 - - 0.0
14/07:00pm 21.9 22.8 17.5 76 2.7 ENE 9 19 5 10 - - 0.0
14/06:30pm 22.2 22.8 17.6 75 2.9 NE 11 17 6 9 - - 0.0
14/06:00pm 22.5 22.6 17.4 73 3.2 NE 13 20 7 11 - - 0.0
14/05:30pm 22.8 22.3 17.0 70 3.6 NE 15 22 8 12 - - 0.0
14/05:00pm 23.1 21.9 17.1 69 3.7 NE 19 28 10 15 - - 0.0
14/04:30pm 23.7 22.9 17.0 66 4.1 NE 17 28 9 15 - - 0.0
14/04:00pm 24.4 22.1 14.2 53 6.0 NE 19 28 10 15 - - 0.0
14/03:30pm 24.8 22.3 14.0 51 6.4 NE 20 28 11 15 - - 0.0
14/03:00pm 25.3 21.7 10.0 38 8.5 NE 19 26 10 14 - - 0.0
14/02:30pm 25.5 22.9 12.0 43 7.7 NE 17 28 9 15 - - 0.0
14/02:00pm 25.5 21.6 8.5 34 9.2 NE 19 30 10 16 - - 0.0
14/01:30pm 25.3 21.9 10.7 40 8.2 NE 19 28 10 15 - - 0.0
14/01:00pm 25.9 22.4 8.8 34 9.3 NE 17 24 9 13 - - 0.0
14/12:30pm 25.5 22.6 10.9 40 8.2 NE 17 22 9 12 - - 0.0
14/12:00pm 25.9 24.6 12.4 43 7.8 NE 11 17 6 9 - - 0.0
14/11:30am 25.7 23.3 11.5 41 8.1 NNE 15 20 8 11 - - 0.0
14/11:00am 24.8 22.3 11.0 42 7.7 ENE 15 20 8 11 - - 0.0
14/10:30am 25.0 23.1 11.9 44 7.5 NNE 13 22 7 12 - - 0.0
14/10:00am 25.1 24.1 10.2 39 8.3 NE 6 13 3 7 - - 0.0
14/09:30am 24.8 23.7 10.7 41 7.9 ENE 7 17 4 9 - - 0.0
14/09:00am 24.1 23.0 12.1 47 6.8 ENE 9 15 5 8 - - 0.0
14/08:30am 23.7 22.9 13.0 51 6.2 NE 9 17 5 9 - - 0.0
14/08:00am 23.9 24.1 14.3 55 5.7 E 6 9 3 5 - - 0.0
14/07:30am 23.3 23.4 13.8 55 5.6 E 6 13 3 7 - - 0.0
14/07:00am 22.4 22.7 14.5 61 4.7 ESE 6 11 3 6 - - 0.0
14/06:30am 21.4 22.2 15.9 71 3.3 SSE 6 11 3 6 - - 0.0
14/06:00am 19.0 20.2 15.9 82 1.8 SSE 4 6 2 3 - - 0.0
14/05:30am 17.6 18.6 15.4 87 1.3 SSE 4 4 2 2 - - 0.0
14/05:00am 17.5 18.4 15.1 86 1.4 SE 4 6 2 3 - - 0.0
14/04:30am 18.1 18.9 14.8 81 1.9 SE 4 4 2 2 - - 0.0
14/04:00am 19.4 20.1 15.5 78 2.3 ESE 6 9 3 5 - - 0.0
14/03:30am 19.5 20.1 15.4 77 2.4 ESE 6 9 3 5 - - 0.0
14/03:00am 20.1 20.6 15.5 75 2.7 ESE 7 15 4 8 - - 0.0
14/02:30am 20.2 20.8 15.8 76 2.6 ESE 7 17 4 9 - - 0.0
14/02:00am 20.0 20.5 15.0 73 2.9 SE 6 9 3 5 - - 0.0
14/01:30am 20.3 20.8 15.1 72 3.1 SE 6 11 3 6 - - 0.0
14/01:00am 20.3 20.8 15.1 72 3.1 SE 6 11 3 6 - - 0.0
14/12:30am 20.1 20.6 14.9 72 3.1 SE 6 9 3 5 - - 0.0
14/12:00am 20.6 21.0 15.4 72 3.1 SE 7 11 4 6 - - 0.0
 
Date/Time
EST
Temp
°C
App
Temp
°C
Dew
Point
°C
Rel
Hum
%
Delta-T
°C
Wind Press
QNH
hPa
Press
MSL
hPa
Rain since
9am
mm
Dir  Spd
km/h
Gust
km/h
Spd
kts
Gust
kts
13/11:30pm 20.7 21.2 15.5 72 3.1 SE 7 13 4 7 - - 0.0
13/11:00pm 20.7 20.7 15.3 71 3.2 SE 9 17 5 9 - - 0.0
13/10:30pm 20.9 20.5 15.2 70 3.4 SE 11 17 6 9 - - 0.0
13/10:00pm 20.8 20.6 15.8 73 3.0 SE 11 19 6 10 - - 0.0
13/09:30pm 21.0 21.2 15.8 72 3.1 SE 9 19 5 10 - - 0.0
13/09:00pm 21.2 21.1 16.0 72 3.1 SE 11 20 6 11 - - 0.0
13/08:30pm 21.3 21.6 16.0 72 3.2 SE 9 19 5 10 - - 0.0
13/08:00pm 21.4 20.8 15.7 70 3.4 SE 13 22 7 12 - - 0.0
13/07:30pm 21.4 20.7 15.5 69 3.5 SE 13 28 7 15 - - 0.0
13/07:00pm 21.2 20.2 14.6 66 3.9 SE 13 22 7 12 - - 0.0
13/06:30pm 21.3 20.4 14.9 67 3.8 SE 13 28 7 15 - - 0.0
13/06:00pm 21.6 20.4 15.0 66 3.9 SE 15 28 8 15 - - 0.0
13/05:30pm 22.1 20.1 15.0 64 4.2 SE 19 35 10 19 - - 0.0
13/05:00pm 22.8 21.2 15.1 62 4.6 SE 17 28 9 15 - - 0.0
13/04:30pm 23.2 21.3 15.8 63 4.5 SE 20 37 11 20 - - 0.0
13/04:00pm 23.5 21.6 15.3 60 4.9 SE 19 33 10 18 - - 0.0
13/03:30pm 24.2 22.1 16.2 61 4.9 SE 22 35 12 19 - - 0.0
13/03:00pm 24.7 22.3 16.4 60 5.1 SE 24 35 13 19 - - 0.0
13/02:30pm 25.4 23.7 17.1 60 5.2 ESE 22 37 12 20 - - 0.0
13/02:00pm 25.2 22.9 16.6 59 5.3 SE 24 39 13 21 - - 0.0
13/01:30pm 26.5 25.2 18.1 60 5.3 SE 22 43 12 23 - - 0.0
13/01:00pm 26.1 25.2 17.7 60 5.3 ESE 19 33 10 18 - - 0.0
13/12:30pm 26.3 25.1 18.4 61 5.0 ESE 22 39 12 21 - - 0.0
13/12:00pm 26.5 25.0 18.6 62 5.0 ESE 24 39 13 21 - - 0.0
13/11:30am 26.3 24.5 17.9 60 5.3 SE 24 41 13 22 - - 0.0
13/11:00am 27.0 26.2 18.0 58 5.7 SE 19 33 10 18 - - 0.0
13/10:30am 27.5 27.2 17.4 54 6.4 E 15 26 8 14 - - 0.0
13/10:00am 31.5 29.9 10.2 27 12.2 SSE 9 17 5 9 - - 0.0
13/09:30am 30.4 28.9 10.4 29 11.4 W 9 20 5 11 - - 0.0
13/09:00am 29.8 27.3 10.9 31 10.8 SW 15 26 8 14 - - 0.0
13/08:30am 29.7 27.7 10.3 30 11.0 W 11 28 6 15 - - 0.0
13/08:00am 27.8 26.9 11.4 36 9.4 WNW 7 13 4 7 - - 0.0
13/07:30am 26.2 24.5 14.6 48 7.0 NNW 17 26 9 14 - - 0.0
13/07:00am 25.2 24.3 14.9 52 6.2 NNW 13 22 7 12 - - 0.0
13/06:30am 23.5 23.4 16.1 63 4.5 NNW 11 17 6 9 - - 0.0
13/06:00am 22.3 23.2 16.1 68 3.8 N 6 7 3 4 - - 0.0
13/05:30am 21.6 22.8 15.9 70 3.4 W 4 7 2 4 - - 0.0
13/05:00am 22.0 22.9 16.5 71 3.3 NNW 7 13 4 7 - - 0.0
13/04:30am 22.2 22.4 16.7 71 3.4 N 11 15 6 8 - - 0.0
13/04:00am 22.2 21.0 16.2 69 3.6 N 17 26 9 14 - - 0.0
13/03:30am 22.3 21.5 16.1 68 3.8 N 15 22 8 12 - - 0.0
13/03:00am 22.5 21.6 15.8 66 4.0 N 15 22 8 12 - - 0.0
13/02:30am 22.8 21.7 15.4 63 4.4 N 15 22 8 12 - - 0.0
13/02:00am 23.1 21.6 15.4 62 4.6 N 17 28 9 15 - - 0.0
13/01:30am 23.2 22.2 15.5 62 4.6 N 15 24 8 13 - - 0.0
13/01:00am 23.0 22.5 15.8 64 4.3 N 13 20 7 11 - - 0.0
13/12:30am 23.3 22.2 15.4 61 4.7 N 15 26 8 14 - - 0.0
13/12:00am 23.2 22.3 15.8 63 4.5 N 15 24 8 13 - - 0.0

Other formats

Comma delimited format used in spreadsheet applications
http://www.bom.gov.au/fwo/IDQ60801/IDQ60801.94561.axf

JavaScript Object Notation format (JSON) in row-major order
http://www.bom.gov.au/fwo/IDQ60801/IDQ60801.94561.json

Data quality

Most of these data are generated automatically and are frequently updated. Quality checks on data are not normally performed. It is possible for incorrect values to appear. Refer to information at About Latest Weather Observations and please check the disclaimer before using these data.